sensor_id;sensor_type;location;lat;lon;timestamp;P1;P2;P0
77878;PMS7003;67071;51.144;17.050;2023-03-01T14:44:15;32;29;19
77878;PMS7003;67071;51.144;17.050;2023-03-01T14:50:46;14;14;9
77878;PMS7003;67071;51.144;17.050;2023-03-01T14:57:35;12;10;7
77878;PMS7003;67071;51.144;17.050;2023-03-01T15:00:56;10;10;7
77878;PMS7003;67071;51.144;17.050;2023-03-01T15:04:24;12;9;7
77878;PMS7003;67071;51.144;17.050;2023-03-01T15:07:43;19;13;8
77878;PMS7003;67071;51.144;17.050;2023-03-01T15:11:24;10;10;8
77878;PMS7003;67071;51.144;17.050;2023-03-01T15:14:44;9;9;8
77878;PMS7003;67071;51.144;17.050;2023-03-01T15:21:34;15;10;6
77878;PMS7003;67071;51.144;17.050;2023-03-01T15:24:58;11;10;9
77878;PMS7003;67071;51.144;17.050;2023-03-01T15:28:18;20;17;11
77878;PMS7003;67071;51.144;17.050;2023-03-01T15:31:39;15;12;9
77878;PMS7003;67071;51.144;17.050;2023-03-01T15:34:55;15;14;9
77878;PMS7003;67071;51.144;17.050;2023-03-01T15:41:46;12;11;8
77878;PMS7003;67071;51.144;17.050;2023-03-01T15:45:24;19;14;9
77878;PMS7003;67071;51.144;17.050;2023-03-01T15:48:45;11;11;9
77878;PMS7003;67071;51.144;17.050;2023-03-01T15:52:06;17;15;10
77878;PMS7003;67071;51.144;17.050;2023-03-01T15:55:31;12;11;6
77878;PMS7003;67071;51.144;17.050;2023-03-01T15:58:59;15;12;9
77878;PMS7003;67071;51.144;17.050;2023-03-01T16:02:17;12;12;7
77878;PMS7003;67071;51.144;17.050;2023-03-01T16:05:42;7;7;6
77878;PMS7003;67071;51.144;17.050;2023-03-01T16:08:58;10;10;7
77878;PMS7003;67071;51.144;17.050;2023-03-01T16:12:15;15;11;8
77878;PMS7003;67071;51.144;17.050;2023-03-01T16:15:35;16;13;7
77878;PMS7003;67071;51.144;17.050;2023-03-01T16:18:52;16;12;7
77878;PMS7003;67071;51.144;17.050;2023-03-01T16:22:10;3;2;1
77878;PMS7003;67071;51.144;17.050;2023-03-01T16:25:29;9;8;4
77878;PMS7003;67071;51.144;17.050;2023-03-01T16:28:45;7;6;4
77878;PMS7003;67071;51.144;17.050;2023-03-01T16:32:02;7;7;4
77878;PMS7003;67071;51.144;17.050;2023-03-01T16:35:19;13;9;7
77878;PMS7003;67071;51.144;17.050;2023-03-01T16:38:37;11;6;4
77878;PMS7003;67071;51.144;17.050;2023-03-01T16:42:04;6;6;4
77878;PMS7003;67071;51.144;17.050;2023-03-01T16:45:26;3;3;2
77878;PMS7003;67071;51.144;17.050;2023-03-01T16:48:59;3;3;2
77878;PMS7003;67071;51.144;17.050;2023-03-01T16:52:18;5;4;4
77878;PMS7003;67071;51.144;17.050;2023-03-01T16:55:35;5;5;3
77878;PMS7003;67071;51.144;17.050;2023-03-01T16:58:56;4;4;2
77878;PMS7003;67071;51.144;17.050;2023-03-01T17:02:12;5;3;2
77878;PMS7003;67071;51.144;17.050;2023-03-01T17:05:30;4;4;3
77878;PMS7003;67071;51.144;17.050;2023-03-01T17:08:46;5;5;3
77878;PMS7003;67071;51.144;17.050;2023-03-01T17:12:55;6;2;1
77878;PMS7003;67071;51.144;17.050;2023-03-01T17:16:19;3;2;1
77878;PMS7003;67071;51.144;17.050;2023-03-01T17:19:44;4;2;1
77878;PMS7003;67071;51.144;17.050;2023-03-01T17:23:08;9;4;3
77878;PMS7003;67071;51.144;17.050;2023-03-01T17:26:35;4;4;2
77878;PMS7003;67071;51.144;17.050;2023-03-01T17:30:08;2;1;0
77878;PMS7003;67071;51.144;17.050;2023-03-01T17:33:29;5;2;1
77878;PMS7003;67071;51.144;17.050;2023-03-01T17:36:53;4;3;1
77878;PMS7003;67071;51.144;17.050;2023-03-01T17:40:23;5;4;3
77878;PMS7003;67071;51.144;17.050;2023-03-01T17:43:41;6;3;2
77878;PMS7003;67071;51.144;17.050;2023-03-01T17:47:03;7;6;4
77878;PMS7003;67071;51.144;17.050;2023-03-01T17:50:20;1;1;1
77878;PMS7003;67071;51.144;17.050;2023-03-01T17:53:37;7;7;4
77878;PMS7003;67071;51.144;17.050;2023-03-01T17:56:53;5;4;3
77878;PMS7003;67071;51.144;17.050;2023-03-01T18:00:12;3;2;1
77878;PMS7003;67071;51.144;17.050;2023-03-01T18:03:33;6;3;2
77878;PMS7003;67071;51.144;17.050;2023-03-01T18:06:52;4;3;1
77878;PMS7003;67071;51.144;17.050;2023-03-01T18:14:08;5;3;2
77878;PMS7003;67071;51.144;17.050;2023-03-01T18:17:23;4;3;2
77878;PMS7003;67071;51.144;17.050;2023-03-01T18:20:40;3;2;1
77878;PMS7003;67071;51.144;17.050;2023-03-01T18:24:07;3;3;2
77878;PMS7003;67071;51.144;17.050;2023-03-01T18:27:24;7;6;3
77878;PMS7003;67071;51.144;17.050;2023-03-01T18:30:40;6;3;1
77878;PMS7003;67071;51.144;17.050;2023-03-01T18:33:57;4;4;2
77878;PMS7003;67071;51.144;17.050;2023-03-01T18:37:15;4;3;2
77878;PMS7003;67071;51.144;17.050;2023-03-01T18:40:38;5;5;3
77878;PMS7003;67071;51.144;17.050;2023-03-01T18:43:56;3;3;2
77878;PMS7003;67071;51.144;17.050;2023-03-01T18:47:13;3;3;3
77878;PMS7003;67071;51.144;17.050;2023-03-01T18:50:30;5;5;3
77878;PMS7003;67071;51.144;17.050;2023-03-01T18:53:46;4;4;4
77878;PMS7003;67071;51.144;17.050;2023-03-01T18:57:02;3;3;2
77878;PMS7003;67071;51.144;17.050;2023-03-01T19:00:19;8;3;1
77878;PMS7003;67071;51.144;17.050;2023-03-01T19:03:38;8;8;4
77878;PMS7003;67071;51.144;17.050;2023-03-01T19:06:54;7;6;4
77878;PMS7003;67071;51.144;17.050;2023-03-01T19:10:10;7;6;4
77878;PMS7003;67071;51.144;17.050;2023-03-01T19:13:26;6;4;3
77878;PMS7003;67071;51.144;17.050;2023-03-01T19:16:43;6;6;3
77878;PMS7003;67071;51.144;17.050;2023-03-01T19:19:59;5;2;2
77878;PMS7003;67071;51.144;17.050;2023-03-01T19:23:15;3;3;2
77878;PMS7003;67071;51.144;17.050;2023-03-01T19:26:36;4;4;2
77878;PMS7003;67071;51.144;17.050;2023-03-01T19:29:52;4;4;3
77878;PMS7003;67071;51.144;17.050;2023-03-01T19:33:09;5;5;3
77878;PMS7003;67071;51.144;17.050;2023-03-01T19:36:25;11;9;6
77878;PMS7003;67071;51.144;17.050;2023-03-01T19:39:50;5;5;3
77878;PMS7003;67071;51.144;17.050;2023-03-01T19:43:07;2;2;2
77878;PMS7003;67071;51.144;17.050;2023-03-01T19:46:32;2;2;2
77878;PMS7003;67071;51.144;17.050;2023-03-01T19:49:48;4;3;1
77878;PMS7003;67071;51.144;17.050;2023-03-01T19:53:04;3;3;2
77878;PMS7003;67071;51.144;17.050;2023-03-01T19:56:21;7;5;3
77878;PMS7003;67071;51.144;17.050;2023-03-01T19:59:37;6;5;4
77878;PMS7003;67071;51.144;17.050;2023-03-01T20:02:54;9;7;4
77878;PMS7003;67071;51.144;17.050;2023-03-01T20:06:14;12;9;5
77878;PMS7003;67071;51.144;17.050;2023-03-01T20:09:33;3;3;1
77878;PMS7003;67071;51.144;17.050;2023-03-01T20:12:49;5;5;3
77878;PMS7003;67071;51.144;17.050;2023-03-01T20:16:06;6;6;5
77878;PMS7003;67071;51.144;17.050;2023-03-01T20:19:26;7;5;4
77878;PMS7003;67071;51.144;17.050;2023-03-01T20:22:44;7;5;4
77878;PMS7003;67071;51.144;17.050;2023-03-01T20:26:22;14;13;6
77878;PMS7003;67071;51.144;17.050;2023-03-01T20:29:41;14;13;7
77878;PMS7003;67071;51.144;17.050;2023-03-01T20:32:57;18;15;9
77878;PMS7003;67071;51.144;17.050;2023-03-01T20:36:13;14;11;8
77878;PMS7003;67071;51.144;17.050;2023-03-01T20:39:30;15;14;9
77878;PMS7003;67071;51.144;17.050;2023-03-01T20:42:49;20;17;10
77878;PMS7003;67071;51.144;17.050;2023-03-01T20:46:07;14;12;7
77878;PMS7003;67071;51.144;17.050;2023-03-01T20:49:29;11;11;7
77878;PMS7003;67071;51.144;17.050;2023-03-01T20:52:46;23;18;8
77878;PMS7003;67071;51.144;17.050;2023-03-01T20:56:04;14;10;5
77878;PMS7003;67071;51.144;17.050;2023-03-01T20:59:22;9;5;4
77878;PMS7003;67071;51.144;17.050;2023-03-01T21:02:41;13;11;6
77878;PMS7003;67071;51.144;17.050;2023-03-01T21:06:08;12;10;6
77878;PMS7003;67071;51.144;17.050;2023-03-01T21:09:24;18;12;7
77878;PMS7003;67071;51.144;17.050;2023-03-01T21:12:40;13;11;8
77878;PMS7003;67071;51.144;17.050;2023-03-01T21:16:05;10;8;5
77878;PMS7003;67071;51.144;17.050;2023-03-01T21:19:27;14;11;6
77878;PMS7003;67071;51.144;17.050;2023-03-01T21:22:44;16;9;6
77878;PMS7003;67071;51.144;17.050;2023-03-01T21:29:26;9;8;5
77878;PMS7003;67071;51.144;17.050;2023-03-01T21:32:42;13;11;7
77878;PMS7003;67071;51.144;17.050;2023-03-01T21:35:59;17;12;8
77878;PMS7003;67071;51.144;17.050;2023-03-01T21:45:25;19;18;10
77878;PMS7003;67071;51.144;17.050;2023-03-01T21:55:20;25;16;9
77878;PMS7003;67071;51.144;17.050;2023-03-01T22:11:40;19;12;8
